sensor_id;sensor_type;location;lat;lon;timestamp;P1;durP1;ratioP1;P2;durP2;ratioP2
11418;SDS011;32800;44.876;13.880;2022-12-15T00:00:48;3.63;;;3.20;;
11418;SDS011;32800;44.876;13.880;2022-12-15T00:03:32;4.50;;;3.17;;
11418;SDS011;32800;44.876;13.880;2022-12-15T00:06:16;3.93;;;3.10;;
11418;SDS011;32800;44.876;13.880;2022-12-15T00:09:00;5.60;;;3.40;;
11418;SDS011;32800;44.876;13.880;2022-12-15T00:11:44;4.00;;;3.30;;
11418;SDS011;32800;44.876;13.880;2022-12-15T00:14:28;4.13;;;3.27;;
11418;SDS011;32800;44.876;13.880;2022-12-15T00:17:12;4.93;;;3.47;;
11418;SDS011;32800;44.876;13.880;2022-12-15T00:19:56;4.17;;;3.20;;
11418;SDS011;32800;44.876;13.880;2022-12-15T00:22:40;4.87;;;3.17;;
11418;SDS011;32800;44.876;13.880;2022-12-15T00:25:24;3.80;;;3.20;;
11418;SDS011;32800;44.876;13.880;2022-12-15T00:28:08;4.23;;;3.47;;
11418;SDS011;32800;44.876;13.880;2022-12-15T00:30:52;4.53;;;3.17;;
11418;SDS011;32800;44.876;13.880;2022-12-15T00:33:36;4.27;;;3.03;;
11418;SDS011;32800;44.876;13.880;2022-12-15T00:36:20;5.47;;;3.13;;
11418;SDS011;32800;44.876;13.880;2022-12-15T00:39:04;3.23;;;2.63;;
11418;SDS011;32800;44.876;13.880;2022-12-15T00:41:30;4.43;;;3.40;;
11418;SDS011;32800;44.876;13.880;2022-12-15T00:43:55;3.97;;;3.20;;
11418;SDS011;32800;44.876;13.880;2022-12-15T00:46:21;3.43;;;3.10;;
11418;SDS011;32800;44.876;13.880;2022-12-15T00:49:05;4.00;;;3.10;;
11418;SDS011;32800;44.876;13.880;2022-12-15T00:51:50;4.33;;;3.47;;
11418;SDS011;32800;44.876;13.880;2022-12-15T00:54:34;3.90;;;2.80;;
11418;SDS011;32800;44.876;13.880;2022-12-15T00:57:18;3.57;;;2.67;;
11418;SDS011;32800;44.876;13.880;2022-12-15T01:00:02;3.60;;;2.83;;
11418;SDS011;32800;44.876;13.880;2022-12-15T01:02:47;3.20;;;2.73;;
11418;SDS011;32800;44.876;13.880;2022-12-15T01:05:32;3.20;;;2.90;;
11418;SDS011;32800;44.876;13.880;2022-12-15T01:08:16;4.63;;;3.43;;
11418;SDS011;32800;44.876;13.880;2022-12-15T01:11:00;4.07;;;3.30;;
11418;SDS011;32800;44.876;13.880;2022-12-15T01:13:44;3.97;;;3.00;;
11418;SDS011;32800;44.876;13.880;2022-12-15T01:16:28;3.33;;;2.87;;
11418;SDS011;32800;44.876;13.880;2022-12-15T01:19:12;3.63;;;2.70;;
11418;SDS011;32800;44.876;13.880;2022-12-15T01:21:56;3.53;;;3.17;;
11418;SDS011;32800;44.876;13.880;2022-12-15T01:24:21;3.53;;;2.90;;
11418;SDS011;32800;44.876;13.880;2022-12-15T01:26:47;3.90;;;3.10;;
11418;SDS011;32800;44.876;13.880;2022-12-15T01:29:12;3.87;;;3.00;;
11418;SDS011;32800;44.876;13.880;2022-12-15T01:31:38;3.17;;;2.87;;
11418;SDS011;32800;44.876;13.880;2022-12-15T01:34:03;3.23;;;2.93;;
11418;SDS011;32800;44.876;13.880;2022-12-15T01:36:29;3.73;;;2.83;;
11418;SDS011;32800;44.876;13.880;2022-12-15T01:38:54;3.60;;;3.00;;
11418;SDS011;32800;44.876;13.880;2022-12-15T01:41:20;3.77;;;3.17;;
11418;SDS011;32800;44.876;13.880;2022-12-15T01:43:46;3.30;;;2.70;;
11418;SDS011;32800;44.876;13.880;2022-12-15T01:46:15;3.47;;;3.00;;
11418;SDS011;32800;44.876;13.880;2022-12-15T01:56:13;3.33;;;2.70;;
11418;SDS011;32800;44.876;13.880;2022-12-15T01:58:40;3.00;;;2.70;;
11418;SDS011;32800;44.876;13.880;2022-12-15T02:01:07;4.43;;;3.00;;
11418;SDS011;32800;44.876;13.880;2022-12-15T02:03:32;3.53;;;2.87;;
11418;SDS011;32800;44.876;13.880;2022-12-15T02:05:58;3.63;;;2.80;;
11418;SDS011;32800;44.876;13.880;2022-12-15T02:08:24;3.67;;;2.70;;
11418;SDS011;32800;44.876;13.880;2022-12-15T02:10:55;3.23;;;2.80;;
11418;SDS011;32800;44.876;13.880;2022-12-15T02:13:30;4.73;;;2.80;;
11418;SDS011;32800;44.876;13.880;2022-12-15T02:19:02;3.87;;;2.70;;
11418;SDS011;32800;44.876;13.880;2022-12-15T02:24:22;2.87;;;2.60;;
11418;SDS011;32800;44.876;13.880;2022-12-15T02:38:29;3.43;;;2.67;;
11418;SDS011;32800;44.876;13.880;2022-12-15T02:40:59;3.80;;;2.60;;
11418;SDS011;32800;44.876;13.880;2022-12-15T02:43:26;2.77;;;2.37;;
11418;SDS011;32800;44.876;13.880;2022-12-15T02:51:20;3.73;;;2.87;;
11418;SDS011;32800;44.876;13.880;2022-12-15T02:54:23;3.53;;;2.43;;
11418;SDS011;32800;44.876;13.880;2022-12-15T03:00:06;3.03;;;2.20;;
11418;SDS011;32800;44.876;13.880;2022-12-15T03:02:33;3.70;;;2.53;;
11418;SDS011;32800;44.876;13.880;2022-12-15T03:05:02;3.17;;;2.67;;
11418;SDS011;32800;44.876;13.880;2022-12-15T03:07:27;2.97;;;2.67;;
11418;SDS011;32800;44.876;13.880;2022-12-15T03:09:57;3.00;;;2.30;;
11418;SDS011;32800;44.876;13.880;2022-12-15T03:12:24;2.70;;;2.40;;
11418;SDS011;32800;44.876;13.880;2022-12-15T03:14:50;3.03;;;2.40;;
11418;SDS011;32800;44.876;13.880;2022-12-15T03:17:16;2.70;;;2.30;;
11418;SDS011;32800;44.876;13.880;2022-12-15T03:19:41;3.57;;;2.60;;
11418;SDS011;32800;44.876;13.880;2022-12-15T03:22:07;3.93;;;2.50;;
11418;SDS011;32800;44.876;13.880;2022-12-15T03:24:33;2.53;;;2.30;;
11418;SDS011;32800;44.876;13.880;2022-12-15T03:26:58;2.63;;;2.27;;
11418;SDS011;32800;44.876;13.880;2022-12-15T03:29:24;3.37;;;2.30;;
11418;SDS011;32800;44.876;13.880;2022-12-15T03:31:49;3.07;;;2.70;;
11418;SDS011;32800;44.876;13.880;2022-12-15T03:34:15;2.77;;;2.43;;
11418;SDS011;32800;44.876;13.880;2022-12-15T03:36:41;4.17;;;2.43;;
11418;SDS011;32800;44.876;13.880;2022-12-15T03:39:06;2.27;;;2.07;;
11418;SDS011;32800;44.876;13.880;2022-12-15T03:41:32;2.47;;;2.27;;
11418;SDS011;32800;44.876;13.880;2022-12-15T03:43:58;2.53;;;2.33;;
11418;SDS011;32800;44.876;13.880;2022-12-15T03:46:23;3.40;;;2.50;;
11418;SDS011;32800;44.876;13.880;2022-12-15T03:48:49;2.90;;;2.30;;
11418;SDS011;32800;44.876;13.880;2022-12-15T03:51:14;2.43;;;1.90;;
11418;SDS011;32800;44.876;13.880;2022-12-15T03:53:40;3.00;;;2.47;;
11418;SDS011;32800;44.876;13.880;2022-12-15T03:56:06;2.80;;;2.00;;
11418;SDS011;32800;44.876;13.880;2022-12-15T03:58:31;2.20;;;2.00;;
11418;SDS011;32800;44.876;13.880;2022-12-15T04:00:57;2.50;;;2.30;;
11418;SDS011;32800;44.876;13.880;2022-12-15T04:03:22;2.60;;;2.30;;
11418;SDS011;32800;44.876;13.880;2022-12-15T04:05:48;2.50;;;2.30;;
11418;SDS011;32800;44.876;13.880;2022-12-15T04:08:13;4.43;;;2.50;;
11418;SDS011;32800;44.876;13.880;2022-12-15T04:10:39;2.23;;;2.00;;
11418;SDS011;32800;44.876;13.880;2022-12-15T04:13:06;3.33;;;2.37;;
11418;SDS011;32800;44.876;13.880;2022-12-15T04:15:33;2.57;;;2.10;;
11418;SDS011;32800;44.876;13.880;2022-12-15T04:18:03;2.60;;;2.10;;
11418;SDS011;32800;44.876;13.880;2022-12-15T04:20:30;2.40;;;2.10;;
11418;SDS011;32800;44.876;13.880;2022-12-15T04:22:57;2.60;;;2.10;;
11418;SDS011;32800;44.876;13.880;2022-12-15T04:25:23;2.30;;;2.10;;
11418;SDS011;32800;44.876;13.880;2022-12-15T04:28:09;2.27;;;2.07;;
11418;SDS011;32800;44.876;13.880;2022-12-15T04:30:54;2.40;;;2.20;;
11418;SDS011;32800;44.876;13.880;2022-12-15T04:33:40;2.80;;;2.20;;
11418;SDS011;32800;44.876;13.880;2022-12-15T04:36:25;2.23;;;1.80;;
11418;SDS011;32800;44.876;13.880;2022-12-15T04:39:10;2.50;;;2.00;;
11418;SDS011;32800;44.876;13.880;2022-12-15T04:41:53;2.57;;;1.97;;
11418;SDS011;32800;44.876;13.880;2022-12-15T04:44:40;2.40;;;2.20;;
11418;SDS011;32800;44.876;13.880;2022-12-15T04:47:24;2.90;;;2.10;;
11418;SDS011;32800;44.876;13.880;2022-12-15T04:50:08;2.60;;;1.90;;
11418;SDS011;32800;44.876;13.880;2022-12-15T04:52:52;2.40;;;2.20;;
11418;SDS011;32800;44.876;13.880;2022-12-15T04:55:36;2.63;;;1.80;;
11418;SDS011;32800;44.876;13.880;2022-12-15T04:58:21;2.43;;;2.10;;
11418;SDS011;32800;44.876;13.880;2022-12-15T05:01:05;2.50;;;2.17;;
11418;SDS011;32800;44.876;13.880;2022-12-15T05:03:49;1.83;;;1.73;;
11418;SDS011;32800;44.876;13.880;2022-12-15T05:06:32;2.23;;;1.80;;
11418;SDS011;32800;44.876;13.880;2022-12-15T05:09:16;2.33;;;2.13;;
11418;SDS011;32800;44.876;13.880;2022-12-15T05:12:00;2.47;;;2.10;;
11418;SDS011;32800;44.876;13.880;2022-12-15T05:14:44;2.10;;;1.90;;
11418;SDS011;32800;44.876;13.880;2022-12-15T05:17:28;1.90;;;1.70;;
11418;SDS011;32800;44.876;13.880;2022-12-15T05:20:12;2.43;;;2.07;;
11418;SDS011;32800;44.876;13.880;2022-12-15T05:22:56;1.70;;;1.60;;
11418;SDS011;32800;44.876;13.880;2022-12-15T05:25:40;2.10;;;1.90;;
11418;SDS011;32800;44.876;13.880;2022-12-15T05:28:24;3.07;;;2.17;;
11418;SDS011;32800;44.876;13.880;2022-12-15T05:31:08;2.83;;;2.30;;
11418;SDS011;32800;44.876;13.880;2022-12-15T05:33:53;1.70;;;1.60;;
11418;SDS011;32800;44.876;13.880;2022-12-15T05:36:19;2.37;;;1.70;;
11418;SDS011;32800;44.876;13.880;2022-12-15T05:38:46;2.50;;;1.70;;
11418;SDS011;32800;44.876;13.880;2022-12-15T05:41:16;2.10;;;1.90;;
11418;SDS011;32800;44.876;13.880;2022-12-15T05:43:42;3.00;;;1.63;;
11418;SDS011;32800;44.876;13.880;2022-12-15T05:46:08;2.43;;;2.00;;
11418;SDS011;32800;44.876;13.880;2022-12-15T05:48:33;2.10;;;1.90;;
11418;SDS011;32800;44.876;13.880;2022-12-15T05:51:06;2.10;;;1.90;;
11418;SDS011;32800;44.876;13.880;2022-12-15T05:53:32;2.00;;;1.60;;
11418;SDS011;32800;44.876;13.880;2022-12-15T05:56:02;2.30;;;1.90;;
11418;SDS011;32800;44.876;13.880;2022-12-15T05:58:38;2.20;;;2.00;;
11418;SDS011;32800;44.876;13.880;2022-12-15T06:01:05;2.17;;;1.80;;
11418;SDS011;32800;44.876;13.880;2022-12-15T06:03:31;2.23;;;1.70;;
11418;SDS011;32800;44.876;13.880;2022-12-15T06:05:58;1.60;;;1.50;;
11418;SDS011;32800;44.876;13.880;2022-12-15T06:08:24;3.20;;;1.73;;
11418;SDS011;32800;44.876;13.880;2022-12-15T06:10:53;2.23;;;1.70;;
11418;SDS011;32800;44.876;13.880;2022-12-15T06:13:19;1.73;;;1.40;;
11418;SDS011;32800;44.876;13.880;2022-12-15T06:18:24;2.20;;;1.90;;
11418;SDS011;32800;44.876;13.880;2022-12-15T06:20:56;2.83;;;1.70;;
11418;SDS011;32800;44.876;13.880;2022-12-15T06:23:23;2.93;;;2.00;;
11418;SDS011;32800;44.876;13.880;2022-12-15T06:25:49;4.07;;;2.53;;
11418;SDS011;32800;44.876;13.880;2022-12-15T06:28:14;4.17;;;2.27;;
11418;SDS011;32800;44.876;13.880;2022-12-15T06:30:41;4.83;;;2.60;;
11418;SDS011;32800;44.876;13.880;2022-12-15T06:33:06;3.90;;;2.40;;
11418;SDS011;32800;44.876;13.880;2022-12-15T06:35:34;5.23;;;2.57;;
11418;SDS011;32800;44.876;13.880;2022-12-15T06:38:01;6.13;;;2.80;;
11418;SDS011;32800;44.876;13.880;2022-12-15T06:40:26;6.27;;;2.90;;
11418;SDS011;32800;44.876;13.880;2022-12-15T06:42:52;6.00;;;2.57;;
11418;SDS011;32800;44.876;13.880;2022-12-15T06:45:17;4.47;;;2.80;;
11418;SDS011;32800;44.876;13.880;2022-12-15T06:47:43;6.47;;;2.90;;
11418;SDS011;32800;44.876;13.880;2022-12-15T06:50:08;5.33;;;2.43;;
11418;SDS011;32800;44.876;13.880;2022-12-15T06:52:34;7.33;;;2.87;;
11418;SDS011;32800;44.876;13.880;2022-12-15T06:54:59;6.83;;;2.60;;
11418;SDS011;32800;44.876;13.880;2022-12-15T06:57:25;6.27;;;2.80;;
11418;SDS011;32800;44.876;13.880;2022-12-15T06:59:51;5.53;;;2.73;;
11418;SDS011;32800;44.876;13.880;2022-12-15T07:02:16;6.93;;;2.80;;
11418;SDS011;32800;44.876;13.880;2022-12-15T07:04:42;6.63;;;3.00;;
11418;SDS011;32800;44.876;13.880;2022-12-15T07:07:08;6.10;;;2.97;;
11418;SDS011;32800;44.876;13.880;2022-12-15T07:09:34;6.80;;;2.97;;
11418;SDS011;32800;44.876;13.880;2022-12-15T07:12:00;6.20;;;3.33;;
11418;SDS011;32800;44.876;13.880;2022-12-15T07:14:26;6.80;;;2.87;;
11418;SDS011;32800;44.876;13.880;2022-12-15T07:16:51;6.67;;;3.20;;
11418;SDS011;32800;44.876;13.880;2022-12-15T07:19:17;7.27;;;3.27;;
11418;SDS011;32800;44.876;13.880;2022-12-15T07:21:42;6.73;;;3.03;;
11418;SDS011;32800;44.876;13.880;2022-12-15T07:24:09;6.90;;;3.40;;
11418;SDS011;32800;44.876;13.880;2022-12-15T07:26:36;7.60;;;3.50;;
11418;SDS011;32800;44.876;13.880;2022-12-15T07:29:01;7.63;;;3.30;;
11418;SDS011;32800;44.876;13.880;2022-12-15T07:31:29;8.70;;;3.40;;
11418;SDS011;32800;44.876;13.880;2022-12-15T07:33:56;7.33;;;3.27;;
11418;SDS011;32800;44.876;13.880;2022-12-15T07:36:22;7.13;;;3.07;;
11418;SDS011;32800;44.876;13.880;2022-12-15T07:38:47;8.53;;;3.30;;
11418;SDS011;32800;44.876;13.880;2022-12-15T07:41:13;10.10;;;3.60;;
11418;SDS011;32800;44.876;13.880;2022-12-15T07:43:39;6.53;;;3.53;;
11418;SDS011;32800;44.876;13.880;2022-12-15T07:46:04;7.43;;;3.50;;
11418;SDS011;32800;44.876;13.880;2022-12-15T07:48:30;5.93;;;3.27;;
11418;SDS011;32800;44.876;13.880;2022-12-15T07:50:56;7.63;;;3.83;;
11418;SDS011;32800;44.876;13.880;2022-12-15T07:53:26;8.00;;;3.80;;
11418;SDS011;32800;44.876;13.880;2022-12-15T07:55:52;9.17;;;3.23;;
11418;SDS011;32800;44.876;13.880;2022-12-15T07:58:19;8.73;;;3.80;;
11418;SDS011;32800;44.876;13.880;2022-12-15T08:00:44;6.63;;;3.27;;
11418;SDS011;32800;44.876;13.880;2022-12-15T08:03:10;7.93;;;3.40;;
11418;SDS011;32800;44.876;13.880;2022-12-15T08:05:35;7.77;;;3.80;;
11418;SDS011;32800;44.876;13.880;2022-12-15T08:08:01;8.40;;;3.90;;
11418;SDS011;32800;44.876;13.880;2022-12-15T08:10:26;6.40;;;3.67;;
11418;SDS011;32800;44.876;13.880;2022-12-15T08:12:52;6.30;;;3.70;;
11418;SDS011;32800;44.876;13.880;2022-12-15T08:15:18;7.37;;;3.73;;
11418;SDS011;32800;44.876;13.880;2022-12-15T08:17:43;7.17;;;3.50;;
11418;SDS011;32800;44.876;13.880;2022-12-15T08:20:10;7.07;;;3.93;;
11418;SDS011;32800;44.876;13.880;2022-12-15T08:22:36;5.70;;;3.40;;
11418;SDS011;32800;44.876;13.880;2022-12-15T08:25:02;7.83;;;3.90;;
11418;SDS011;32800;44.876;13.880;2022-12-15T08:27:27;6.93;;;3.93;;
11418;SDS011;32800;44.876;13.880;2022-12-15T08:29:53;8.47;;;3.63;;
11418;SDS011;32800;44.876;13.880;2022-12-15T08:32:18;8.20;;;3.83;;
11418;SDS011;32800;44.876;13.880;2022-12-15T08:34:44;11.17;;;4.30;;
11418;SDS011;32800;44.876;13.880;2022-12-15T08:37:11;9.20;;;3.73;;
11418;SDS011;32800;44.876;13.880;2022-12-15T08:39:38;9.20;;;3.40;;
11418;SDS011;32800;44.876;13.880;2022-12-15T08:42:03;14.23;;;4.27;;
11418;SDS011;32800;44.876;13.880;2022-12-15T08:44:29;6.20;;;3.83;;
11418;SDS011;32800;44.876;13.880;2022-12-15T08:46:54;8.03;;;3.80;;
11418;SDS011;32800;44.876;13.880;2022-12-15T08:49:20;9.40;;;3.80;;
11418;SDS011;32800;44.876;13.880;2022-12-15T08:51:45;8.97;;;3.63;;
11418;SDS011;32800;44.876;13.880;2022-12-15T08:54:11;6.63;;;3.17;;
11418;SDS011;32800;44.876;13.880;2022-12-15T08:56:37;5.90;;;3.60;;
11418;SDS011;32800;44.876;13.880;2022-12-15T08:59:02;7.00;;;3.63;;
11418;SDS011;32800;44.876;13.880;2022-12-15T09:01:28;5.80;;;3.60;;
11418;SDS011;32800;44.876;13.880;2022-12-15T09:03:56;5.57;;;3.50;;
11418;SDS011;32800;44.876;13.880;2022-12-15T09:06:23;7.80;;;3.80;;
11418;SDS011;32800;44.876;13.880;2022-12-15T09:08:54;5.83;;;3.63;;
11418;SDS011;32800;44.876;13.880;2022-12-15T09:11:21;7.80;;;3.40;;
11418;SDS011;32800;44.876;13.880;2022-12-15T09:13:47;5.80;;;3.93;;
11418;SDS011;32800;44.876;13.880;2022-12-15T09:16:14;6.97;;;4.00;;
11418;SDS011;32800;44.876;13.880;2022-12-15T09:18:41;6.20;;;3.50;;
11418;SDS011;32800;44.876;13.880;2022-12-15T09:21:08;5.97;;;3.50;;
11418;SDS011;32800;44.876;13.880;2022-12-15T09:23:35;6.37;;;3.40;;
11418;SDS011;32800;44.876;13.880;2022-12-15T09:26:02;5.13;;;3.07;;
11418;SDS011;32800;44.876;13.880;2022-12-15T09:28:29;5.23;;;3.40;;
11418;SDS011;32800;44.876;13.880;2022-12-15T09:31:08;5.03;;;3.17;;
11418;SDS011;32800;44.876;13.880;2022-12-15T09:33:36;7.20;;;3.27;;
11418;SDS011;32800;44.876;13.880;2022-12-15T09:36:03;7.13;;;3.57;;
11418;SDS011;32800;44.876;13.880;2022-12-15T09:38:29;5.30;;;3.30;;
11418;SDS011;32800;44.876;13.880;2022-12-15T09:40:55;5.97;;;3.10;;
11418;SDS011;32800;44.876;13.880;2022-12-15T09:43:23;3.57;;;2.90;;
11418;SDS011;32800;44.876;13.880;2022-12-15T09:45:51;6.67;;;3.47;;
11418;SDS011;32800;44.876;13.880;2022-12-15T09:48:39;4.03;;;2.80;;
11418;SDS011;32800;44.876;13.880;2022-12-15T09:51:07;4.47;;;3.00;;
11418;SDS011;32800;44.876;13.880;2022-12-15T09:53:37;3.43;;;2.60;;
11418;SDS011;32800;44.876;13.880;2022-12-15T09:56:04;4.77;;;3.20;;
11418;SDS011;32800;44.876;13.880;2022-12-15T09:58:38;6.00;;;3.70;;
11418;SDS011;32800;44.876;13.880;2022-12-15T10:04:10;8.00;;;3.57;;
11418;SDS011;32800;44.876;13.880;2022-12-15T10:09:28;6.27;;;3.10;;
11418;SDS011;32800;44.876;13.880;2022-12-15T10:12:06;4.73;;;2.87;;
11418;SDS011;32800;44.876;13.880;2022-12-15T10:22:39;4.00;;;2.93;;
11418;SDS011;32800;44.876;13.880;2022-12-15T10:27:53;3.83;;;2.63;;
11418;SDS011;32800;44.876;13.880;2022-12-15T10:30:28;4.47;;;3.03;;
11418;SDS011;32800;44.876;13.880;2022-12-15T10:32:58;5.17;;;2.77;;
11418;SDS011;32800;44.876;13.880;2022-12-15T10:35:28;3.73;;;2.70;;
11418;SDS011;32800;44.876;13.880;2022-12-15T10:37:59;5.00;;;2.90;;
11418;SDS011;32800;44.876;13.880;2022-12-15T10:43:31;3.53;;;2.60;;
11418;SDS011;32800;44.876;13.880;2022-12-15T10:46:05;4.30;;;2.80;;
11418;SDS011;32800;44.876;13.880;2022-12-15T10:48:49;4.30;;;2.77;;
11418;SDS011;32800;44.876;13.880;2022-12-15T10:56:26;3.77;;;2.27;;
11418;SDS011;32800;44.876;13.880;2022-12-15T10:58:53;3.23;;;2.47;;
11418;SDS011;32800;44.876;13.880;2022-12-15T11:01:24;3.30;;;2.63;;
11418;SDS011;32800;44.876;13.880;2022-12-15T11:03:51;4.13;;;2.47;;
11418;SDS011;32800;44.876;13.880;2022-12-15T11:06:25;4.57;;;2.40;;
11418;SDS011;32800;44.876;13.880;2022-12-15T11:08:55;4.23;;;2.47;;
11418;SDS011;32800;44.876;13.880;2022-12-15T11:11:44;4.43;;;2.60;;
11418;SDS011;32800;44.876;13.880;2022-12-15T11:14:38;3.03;;;2.20;;
11418;SDS011;32800;44.876;13.880;2022-12-15T11:17:06;3.60;;;2.30;;
11418;SDS011;32800;44.876;13.880;2022-12-15T11:19:35;5.90;;;2.70;;
11418;SDS011;32800;44.876;13.880;2022-12-15T11:28:18;3.70;;;2.20;;
11418;SDS011;32800;44.876;13.880;2022-12-15T11:30:49;3.37;;;2.53;;
11418;SDS011;32800;44.876;13.880;2022-12-15T11:33:20;2.77;;;2.23;;
11418;SDS011;32800;44.876;13.880;2022-12-15T11:41:21;3.43;;;2.37;;
11418;SDS011;32800;44.876;13.880;2022-12-15T11:44:29;2.93;;;2.57;;
11418;SDS011;32800;44.876;13.880;2022-12-15T11:49:56;3.33;;;2.27;;
11418;SDS011;32800;44.876;13.880;2022-12-15T11:52:36;2.50;;;2.20;;
11418;SDS011;32800;44.876;13.880;2022-12-15T12:00:42;3.23;;;2.20;;
11418;SDS011;32800;44.876;13.880;2022-12-15T12:06:23;2.93;;;2.40;;
11418;SDS011;32800;44.876;13.880;2022-12-15T12:09:14;3.13;;;2.27;;
11418;SDS011;32800;44.876;13.880;2022-12-15T12:11:52;3.10;;;2.40;;
11418;SDS011;32800;44.876;13.880;2022-12-15T12:15:04;3.87;;;2.30;;
11418;SDS011;32800;44.876;13.880;2022-12-15T12:17:16;4.03;;;2.00;;
11418;SDS011;32800;44.876;13.880;2022-12-15T12:19:57;2.47;;;1.97;;
11418;SDS011;32800;44.876;13.880;2022-12-15T12:22:24;2.80;;;2.10;;
11418;SDS011;32800;44.876;13.880;2022-12-15T12:24:58;2.87;;;2.10;;
11418;SDS011;32800;44.876;13.880;2022-12-15T12:27:30;2.30;;;2.10;;
11418;SDS011;32800;44.876;13.880;2022-12-15T12:30:05;2.90;;;2.00;;
11418;SDS011;32800;44.876;13.880;2022-12-15T12:32:50;2.60;;;1.90;;
11418;SDS011;32800;44.876;13.880;2022-12-15T12:38:04;2.60;;;1.90;;
11418;SDS011;32800;44.876;13.880;2022-12-15T12:43:02;3.70;;;2.10;;
11418;SDS011;32800;44.876;13.880;2022-12-15T12:45:40;2.80;;;2.10;;
11418;SDS011;32800;44.876;13.880;2022-12-15T12:48:13;3.57;;;2.40;;
11418;SDS011;32800;44.876;13.880;2022-12-15T12:50:46;2.60;;;2.13;;
11418;SDS011;32800;44.876;13.880;2022-12-15T12:53:33;3.50;;;2.00;;
11418;SDS011;32800;44.876;13.880;2022-12-15T12:55:58;3.13;;;2.00;;
11418;SDS011;32800;44.876;13.880;2022-12-15T12:58:41;2.73;;;1.97;;
11418;SDS011;32800;44.876;13.880;2022-12-15T13:03:37;6.20;;;2.00;;
11418;SDS011;32800;44.876;13.880;2022-12-15T13:06:17;4.03;;;2.03;;
11418;SDS011;32800;44.876;13.880;2022-12-15T13:17:49;4.70;;;2.10;;
11418;SDS011;32800;44.876;13.880;2022-12-15T13:20:20;4.43;;;2.27;;
11418;SDS011;32800;44.876;13.880;2022-12-15T13:22:51;4.13;;;1.97;;
11418;SDS011;32800;44.876;13.880;2022-12-15T13:25:59;5.73;;;3.80;;
11418;SDS011;32800;44.876;13.880;2022-12-15T13:44:30;9.90;;;4.87;;
11418;SDS011;32800;44.876;13.880;2022-12-15T13:52:50;7.80;;;4.30;;
11418;SDS011;32800;44.876;13.880;2022-12-15T13:55:21;9.20;;;4.57;;
11418;SDS011;32800;44.876;13.880;2022-12-15T13:57:57;9.53;;;4.90;;
11418;SDS011;32800;44.876;13.880;2022-12-15T14:00:27;8.40;;;4.67;;
11418;SDS011;32800;44.876;13.880;2022-12-15T14:05:38;13.13;;;5.83;;
11418;SDS011;32800;44.876;13.880;2022-12-15T14:08:11;7.40;;;4.60;;
11418;SDS011;32800;44.876;13.880;2022-12-15T14:13:13;15.60;;;8.50;;
11418;SDS011;32800;44.876;13.880;2022-12-15T14:15:46;77.70;;;36.30;;
11418;SDS011;32800;44.876;13.880;2022-12-15T14:18:36;64.23;;;31.30;;
11418;SDS011;32800;44.876;13.880;2022-12-15T14:21:06;86.60;;;39.57;;
11418;SDS011;32800;44.876;13.880;2022-12-15T14:23:46;90.77;;;45.87;;
11418;SDS011;32800;44.876;13.880;2022-12-15T14:26:13;101.77;;;49.43;;
11418;SDS011;32800;44.876;13.880;2022-12-15T14:28:40;148.10;;;68.93;;
11418;SDS011;32800;44.876;13.880;2022-12-15T14:33:36;195.63;;;92.37;;
11418;SDS011;32800;44.876;13.880;2022-12-15T14:36:08;189.03;;;90.03;;
11418;SDS011;32800;44.876;13.880;2022-12-15T14:39:11;193.53;;;95.70;;
11418;SDS011;32800;44.876;13.880;2022-12-15T14:41:32;206.80;;;97.10;;
11418;SDS011;32800;44.876;13.880;2022-12-15T14:44:01;194.23;;;91.03;;
11418;SDS011;32800;44.876;13.880;2022-12-15T14:46:28;188.80;;;93.95;;
11418;SDS011;32800;44.876;13.880;2022-12-15T14:48:58;192.17;;;91.70;;
11418;SDS011;32800;44.876;13.880;2022-12-15T14:51:27;193.80;;;94.90;;
11418;SDS011;32800;44.876;13.880;2022-12-15T14:53:54;182.77;;;90.77;;
11418;SDS011;32800;44.876;13.880;2022-12-15T14:58:54;195.40;;;92.77;;
11418;SDS011;32800;44.876;13.880;2022-12-15T15:03:57;196.17;;;92.73;;
11418;SDS011;32800;44.876;13.880;2022-12-15T15:06:29;194.67;;;92.27;;
11418;SDS011;32800;44.876;13.880;2022-12-15T15:09:02;194.80;;;92.60;;
11418;SDS011;32800;44.876;13.880;2022-12-15T15:11:36;183.93;;;91.00;;
11418;SDS011;32800;44.876;13.880;2022-12-15T15:14:06;181.87;;;89.30;;
11418;SDS011;32800;44.876;13.880;2022-12-15T15:16:39;183.50;;;89.87;;
11418;SDS011;32800;44.876;13.880;2022-12-15T15:19:05;170.70;;;85.70;;
11418;SDS011;32800;44.876;13.880;2022-12-15T15:21:33;173.33;;;83.37;;
11418;SDS011;32800;44.876;13.880;2022-12-15T15:24:22;178.10;;;85.40;;
11418;SDS011;32800;44.876;13.880;2022-12-15T15:26:49;167.17;;;81.47;;
11418;SDS011;32800;44.876;13.880;2022-12-15T15:34:44;159.33;;;79.20;;
11418;SDS011;32800;44.876;13.880;2022-12-15T15:37:15;155.33;;;78.57;;
11418;SDS011;32800;44.876;13.880;2022-12-15T15:39:49;154.20;;;78.50;;
11418;SDS011;32800;44.876;13.880;2022-12-15T15:42:16;153.47;;;78.00;;
11418;SDS011;32800;44.876;13.880;2022-12-15T15:44:41;149.93;;;73.20;;
11418;SDS011;32800;44.876;13.880;2022-12-15T15:47:13;147.20;;;74.33;;
11418;SDS011;32800;44.876;13.880;2022-12-15T15:49:49;151.33;;;72.60;;
11418;SDS011;32800;44.876;13.880;2022-12-15T15:52:15;141.33;;;70.57;;
11418;SDS011;32800;44.876;13.880;2022-12-15T15:54:41;152.70;;;72.53;;
11418;SDS011;32800;44.876;13.880;2022-12-15T15:57:11;138.20;;;71.80;;
11418;SDS011;32800;44.876;13.880;2022-12-15T15:59:39;143.07;;;68.70;;
11418;SDS011;32800;44.876;13.880;2022-12-15T16:02:07;135.70;;;68.77;;
11418;SDS011;32800;44.876;13.880;2022-12-15T16:04:34;144.07;;;69.30;;
11418;SDS011;32800;44.876;13.880;2022-12-15T16:07:02;139.93;;;67.67;;
11418;SDS011;32800;44.876;13.880;2022-12-15T16:09:28;135.07;;;65.53;;
11418;SDS011;32800;44.876;13.880;2022-12-15T16:11:53;134.50;;;65.67;;
11418;SDS011;32800;44.876;13.880;2022-12-15T16:14:19;121.20;;;63.60;;
11418;SDS011;32800;44.876;13.880;2022-12-15T16:16:45;124.27;;;64.03;;
11418;SDS011;32800;44.876;13.880;2022-12-15T16:19:10;126.70;;;62.63;;
11418;SDS011;32800;44.876;13.880;2022-12-15T16:21:36;123.57;;;62.53;;
11418;SDS011;32800;44.876;13.880;2022-12-15T16:24:04;120.07;;;61.10;;
11418;SDS011;32800;44.876;13.880;2022-12-15T16:26:33;122.00;;;60.63;;
11418;SDS011;32800;44.876;13.880;2022-12-15T16:29:01;118.67;;;59.90;;
11418;SDS011;32800;44.876;13.880;2022-12-15T16:31:31;113.37;;;59.17;;
11418;SDS011;32800;44.876;13.880;2022-12-15T16:34:00;120.97;;;59.67;;
11418;SDS011;32800;44.876;13.880;2022-12-15T16:36:25;110.90;;;56.87;;
11418;SDS011;32800;44.876;13.880;2022-12-15T16:38:51;113.13;;;58.73;;
11418;SDS011;32800;44.876;13.880;2022-12-15T16:41:17;112.10;;;57.23;;
11418;SDS011;32800;44.876;13.880;2022-12-15T16:43:43;104.03;;;54.07;;
11418;SDS011;32800;44.876;13.880;2022-12-15T16:46:11;104.43;;;54.90;;
11418;SDS011;32800;44.876;13.880;2022-12-15T16:48:38;105.87;;;54.93;;
11418;SDS011;32800;44.876;13.880;2022-12-15T16:51:05;102.87;;;54.37;;
11418;SDS011;32800;44.876;13.880;2022-12-15T16:53:37;101.23;;;52.60;;
11418;SDS011;32800;44.876;13.880;2022-12-15T16:56:04;101.07;;;52.50;;
11418;SDS011;32800;44.876;13.880;2022-12-15T16:58:32;108.07;;;52.97;;
11418;SDS011;32800;44.876;13.880;2022-12-15T17:00:59;99.77;;;50.73;;
11418;SDS011;32800;44.876;13.880;2022-12-15T17:03:24;98.97;;;50.53;;
11418;SDS011;32800;44.876;13.880;2022-12-15T17:05:54;95.63;;;49.43;;
11418;SDS011;32800;44.876;13.880;2022-12-15T17:11:17;81.87;;;44.07;;
11418;SDS011;32800;44.876;13.880;2022-12-15T17:13:44;82.40;;;43.00;;
11418;SDS011;32800;44.876;13.880;2022-12-15T17:16:12;78.90;;;42.70;;